Sanar-3 — UBPI2 — position and weather

sailwx.info

Track history (hours):
 
Tides and Currents Weather Stations Pressure Air Temp Water Temp Dewpoint Dewpoint Depression Visibility Wind Speed Wind Dir Waves Ship Positions

Sanar-3

Last reported at 2018-Apr-24 21:22 UTC. Time now 2018-Apr-26 23:07 UTC.
Position N 45°25' E 036°41'.

Length 140 m; draft 2.9 m.

Type: Ship. MMSI: 273358760.

Date/timePositionNaut miles runAvg speedWind from/ knotsBaromVisibWave heightAir tempDewpointWater temp
2018-Apr-24 21:22N 45°25' E 036°41'3 7.9
2018-Apr-24 21:00N 45°23' E 036°40'4 7.8
2018-Apr-24 20:30N 45°20' E 036°36'5 9.2
2018-Apr-24 20:00N 45°18' E 036°30'2 0.1
2018-Apr-23 19:06N 45°19' E 036°32'1 7.6
2018-Apr-23 19:00N 45°19' E 036°33'4 7.7
2018-Apr-23 18:30N 45°21' E 036°38'3 6.9
2018-Apr-23 18:00N 45°24' E 036°40'3 6.5
2018-Apr-23 17:30N 45°27' E 036°39'1 1.1
2018-Apr-23 16:55N 45°28' E 036°39'0 0.0
2018-Apr-23 16:28N 45°28' E 036°39'0 0.0
2018-Apr-23 15:19N 45°28' E 036°39'0 0.1
2018-Apr-23 14:46N 45°28' E 036°39'0 0.0
2018-Apr-23 14:28N 45°28' E 036°39'0 0.0
2018-Apr-23 13:58N 45°28' E 036°39'0 0.0
2018-Apr-23 13:25N 45°28' E 036°39'0 0.1
2018-Apr-23 12:46N 45°28' E 036°39'0 1.8
2018-Apr-23 12:30N 45°28' E 036°39'3 7.0
2018-Apr-23 12:00N 45°31' E 036°40'  
Track history (hours):
 
Tides and Currents Weather Stations Pressure Air Temp Water Temp Dewpoint Dewpoint Depression Visibility Wind Speed Wind Dir Waves Ship Positions

Sanar-3

Last reported at 2018-Apr-24 21:22 UTC. Time now 2018-Apr-26 23:07 UTC.
Position N 45°25' E 036°41'.

Length 140 m; draft 2.9 m.

Type: Ship. MMSI: 273358760.

Date/timePositionNaut miles runAvg speedWind from/ knotsBaromVisibWave heightAir tempDewpointWater temp
2018-Apr-24 21:22N 45°25' E 036°41'3 7.9
2018-Apr-24 21:00N 45°23' E 036°40'4 7.8
2018-Apr-24 20:30N 45°20' E 036°36'5 9.2
2018-Apr-24 20:00N 45°18' E 036°30'2 0.1
2018-Apr-23 19:06N 45°19' E 036°32'1 7.6
2018-Apr-23 19:00N 45°19' E 036°33'4 7.7
2018-Apr-23 18:30N 45°21' E 036°38'3 6.9
2018-Apr-23 18:00N 45°24' E 036°40'3 6.5
2018-Apr-23 17:30N 45°27' E 036°39'1 1.1
2018-Apr-23 16:55N 45°28' E 036°39'0 0.0
2018-Apr-23 16:28N 45°28' E 036°39'0 0.0
2018-Apr-23 15:19N 45°28' E 036°39'0 0.1
2018-Apr-23 14:46N 45°28' E 036°39'0 0.0
2018-Apr-23 14:28N 45°28' E 036°39'0 0.0
2018-Apr-23 13:58N 45°28' E 036°39'0 0.0
2018-Apr-23 13:25N 45°28' E 036°39'0 0.1
2018-Apr-23 12:46N 45°28' E 036°39'0 1.8
2018-Apr-23 12:30N 45°28' E 036°39'3 7.0
2018-Apr-23 12:00N 45°31' E 036°40'  

Dump ship's entire track history